createdAt,value
2018-05-25T00:02:17.656Z,6.70
2018-05-25T00:04:46.017Z,6.60
2018-05-25T00:07:14.411Z,6.67
2018-05-25T00:09:42.897Z,6.07
2018-05-25T00:12:11.374Z,6.17
2018-05-25T00:14:39.853Z,6.30
2018-05-25T00:17:08.186Z,8.23
2018-05-25T00:19:36.490Z,7.33
2018-05-25T00:22:05.707Z,9.10
2018-05-25T00:24:34.187Z,7.03
2018-05-25T00:27:02.511Z,6.50
2018-05-25T00:29:31.055Z,6.80
2018-05-25T00:31:59.536Z,8.33
2018-05-25T00:34:28.008Z,11.00
2018-05-25T00:36:56.325Z,6.20
2018-05-25T00:39:24.869Z,7.20
2018-05-25T00:41:53.155Z,6.07
2018-05-25T00:44:21.626Z,7.10
2018-05-25T00:46:50.006Z,6.83
2018-05-25T00:49:18.594Z,6.90
2018-05-25T00:51:47.172Z,8.33
2018-05-25T00:54:15.596Z,6.20
2018-05-25T00:56:44.029Z,6.63
2018-05-25T00:59:12.513Z,5.80
2018-05-25T01:01:41.000Z,5.67
2018-05-25T01:04:09.415Z,5.37
2018-05-25T01:06:39.318Z,4.67
2018-05-25T01:09:07.803Z,5.50
2018-05-25T01:11:36.455Z,4.73
2018-05-25T01:14:04.847Z,4.37
2018-05-25T01:16:33.263Z,5.10
2018-05-25T01:19:01.590Z,4.80
2018-05-25T01:21:29.973Z,4.17
2018-05-25T01:23:58.446Z,4.03
2018-05-25T01:26:26.930Z,4.03
2018-05-25T01:28:55.350Z,3.23
2018-05-25T01:31:23.735Z,3.93
2018-05-25T01:33:52.985Z,3.67
2018-05-25T01:36:21.394Z,3.37
2018-05-25T01:38:49.778Z,3.10
2018-05-25T01:41:18.329Z,3.10
2018-05-25T01:43:46.640Z,3.60
2018-05-25T01:46:15.038Z,3.00
2018-05-25T01:48:43.466Z,3.53
2018-05-25T01:51:11.887Z,3.03
2018-05-25T01:53:40.318Z,3.00
2018-05-25T01:56:08.732Z,3.10
2018-05-25T01:58:37.109Z,3.27
2018-05-25T02:01:05.417Z,2.90
2018-05-25T02:03:33.937Z,2.70
2018-05-25T02:06:02.458Z,2.20
2018-05-25T02:08:31.053Z,2.00
2018-05-25T02:11:00.350Z,2.50
2018-05-25T02:13:28.995Z,2.50
2018-05-25T02:15:57.386Z,2.63
2018-05-25T02:18:26.465Z,2.47
2018-05-25T02:20:54.944Z,2.20
2018-05-25T02:23:23.425Z,2.37
2018-05-25T02:25:51.910Z,2.70
2018-05-25T02:28:20.384Z,2.07
2018-05-25T02:30:48.970Z,1.90
2018-05-25T02:33:17.450Z,2.10
2018-05-25T02:35:45.800Z,2.10
2018-05-25T02:38:14.103Z,2.60
2018-05-25T02:40:42.480Z,1.97
2018-05-25T02:43:10.964Z,2.33
2018-05-25T02:45:39.373Z,2.40
2018-05-25T02:48:07.828Z,2.53
2018-05-25T02:50:36.307Z,1.70
2018-05-25T02:53:04.685Z,1.67
2018-05-25T02:55:33.268Z,2.07
2018-05-25T02:58:01.560Z,2.30
2018-05-25T03:00:30.022Z,2.07
2018-05-25T03:02:58.428Z,2.20
2018-05-25T03:05:27.829Z,2.30
2018-05-25T03:07:56.281Z,2.10
2018-05-25T03:10:24.633Z,2.67
2018-05-25T03:12:54.066Z,2.80
2018-05-25T03:15:22.550Z,3.63
2018-05-25T03:17:51.029Z,4.47
2018-05-25T03:20:19.510Z,3.77
2018-05-25T03:22:47.873Z,3.53
2018-05-25T03:25:16.315Z,4.30
2018-05-25T03:27:44.741Z,4.03
2018-05-25T03:30:13.194Z,4.30
2018-05-25T03:32:42.425Z,4.40
2018-05-25T03:35:10.802Z,4.40
2018-05-25T03:37:39.152Z,4.23
2018-05-25T03:40:08.484Z,4.27
2018-05-25T03:42:36.961Z,4.20
2018-05-25T03:45:05.444Z,4.07
2018-05-25T03:47:34.025Z,4.90
2018-05-25T03:50:02.454Z,3.57
2018-05-25T03:52:30.817Z,3.57
2018-05-25T03:54:59.264Z,5.10
2018-05-25T03:57:27.747Z,5.07
2018-05-25T04:00:08.206Z,3.47
2018-05-25T04:02:37.003Z,3.87
2018-05-25T04:05:05.679Z,3.53
2018-05-25T04:07:34.007Z,3.67
2018-05-25T04:10:02.545Z,3.17
2018-05-25T04:12:31.019Z,3.70
2018-05-25T04:14:59.503Z,3.80
2018-05-25T04:17:27.934Z,4.57
2018-05-25T04:19:57.177Z,4.40
2018-05-25T04:22:25.659Z,3.80
2018-05-25T04:24:54.050Z,5.27
2018-05-25T04:27:22.554Z,5.73
2018-05-25T04:29:51.632Z,4.20
2018-05-25T04:32:20.099Z,4.83
2018-05-25T04:34:48.576Z,6.03
2018-05-25T04:37:17.061Z,5.70
2018-05-25T04:39:45.448Z,4.10
2018-05-25T04:42:13.806Z,4.10
2018-05-25T04:44:42.298Z,3.60
2018-05-25T04:47:10.878Z,3.67
2018-05-25T04:49:39.309Z,3.37
2018-05-25T04:52:07.865Z,4.23
2018-05-25T04:54:36.323Z,3.50
2018-05-25T04:57:05.121Z,3.80
2018-05-25T04:59:33.738Z,4.73
2018-05-25T05:02:02.275Z,4.17
2018-05-25T05:04:31.168Z,3.50
2018-05-25T05:06:59.590Z,4.00
2018-05-25T05:09:27.952Z,3.17
2018-05-25T05:11:56.514Z,3.53
2018-05-25T05:14:24.993Z,3.20
2018-05-25T05:16:53.509Z,3.43
2018-05-25T05:19:21.950Z,4.70
2018-05-25T05:21:50.431Z,3.90
2018-05-25T05:24:18.835Z,3.10
2018-05-25T05:26:47.427Z,3.17
2018-05-25T05:29:17.918Z,3.07
2018-05-25T05:31:46.401Z,2.93
2018-05-25T05:34:15.042Z,3.10
2018-05-25T05:36:44.284Z,2.50
2018-05-25T05:39:12.594Z,2.70
2018-05-25T05:41:41.147Z,3.10
2018-05-25T05:44:09.777Z,2.50
2018-05-25T05:46:38.469Z,2.50
2018-05-25T05:49:07.715Z,3.63
2018-05-25T05:51:36.205Z,2.97
2018-05-25T05:54:04.788Z,2.40
2018-05-25T05:56:33.465Z,2.47
2018-05-25T05:59:01.844Z,2.27
2018-05-25T06:01:30.324Z,2.20
2018-05-25T06:03:58.808Z,2.80
2018-05-25T06:06:27.287Z,2.60
2018-05-25T06:08:55.710Z,2.77
2018-05-25T06:11:24.037Z,3.10
2018-05-25T06:13:52.529Z,2.60
2018-05-25T06:16:20.942Z,2.23
2018-05-25T06:18:49.483Z,2.73
2018-05-25T06:21:17.861Z,2.53
2018-05-25T06:23:46.461Z,3.50
2018-05-25T06:26:15.747Z,2.70
2018-05-25T06:28:44.380Z,2.37
2018-05-25T06:31:12.861Z,2.73
2018-05-25T06:33:41.346Z,2.40
2018-05-25T06:36:10.427Z,2.40
2018-05-25T06:38:38.868Z,2.30
2018-05-25T06:41:07.348Z,2.43
2018-05-25T06:43:35.829Z,2.80
2018-05-25T06:46:04.253Z,2.60
2018-05-25T06:48:34.364Z,2.27
2018-05-25T06:51:02.863Z,2.40
2018-05-25T06:53:32.216Z,2.40
2018-05-25T06:56:00.599Z,2.83
2018-05-25T06:58:29.028Z,2.57
2018-05-25T07:00:58.175Z,2.30
2018-05-25T07:03:27.199Z,2.43
2018-05-25T07:05:55.639Z,2.07
2018-05-25T07:08:24.122Z,2.40
2018-05-25T07:10:52.838Z,2.20
2018-05-25T07:13:21.232Z,2.63
2018-05-25T07:15:49.770Z,2.13
2018-05-25T07:18:18.189Z,2.20
2018-05-25T07:20:46.625Z,2.00
2018-05-25T07:23:15.056Z,2.43
2018-05-25T07:25:44.139Z,2.33
2018-05-25T07:28:12.584Z,2.30
2018-05-25T07:30:40.964Z,2.20
2018-05-25T07:33:09.267Z,2.00
2018-05-25T07:35:38.376Z,2.40
2018-05-25T07:38:06.713Z,1.90
2018-05-25T07:40:35.292Z,2.10
2018-05-25T07:43:03.775Z,2.10
2018-05-25T07:45:32.093Z,2.72
2018-05-25T07:48:00.415Z,2.45
2018-05-25T07:50:29.782Z,2.05
2018-05-25T07:52:59.429Z,2.20
2018-05-25T07:55:28.028Z,2.10
2018-05-25T07:57:56.419Z,2.72
2018-05-25T08:00:24.883Z,3.00
2018-05-25T08:02:53.375Z,3.42
